createdAt,value
2017-07-23T00:00:44.415Z,0
2017-07-23T00:01:43.774Z,0
2017-07-23T00:02:43.748Z,0
2017-07-23T00:03:44.416Z,0
2017-07-23T00:04:44.048Z,0
2017-07-23T00:05:44.039Z,0
2017-07-23T00:06:43.709Z,0
2017-07-23T00:07:44.299Z,0
2017-07-23T00:08:44.011Z,0
2017-07-23T00:09:44.285Z,0
2017-07-23T00:10:44.271Z,0
2017-07-23T00:11:43.658Z,0
2017-07-23T00:12:44.330Z,0
2017-07-23T00:13:43.678Z,0
2017-07-23T00:14:44.224Z,0
2017-07-23T00:15:44.219Z,0
2017-07-23T00:16:43.618Z,0
2017-07-23T00:17:43.868Z,0
2017-07-23T00:18:43.859Z,0
2017-07-23T00:19:44.187Z,0
2017-07-23T00:20:43.840Z,0
2017-07-23T00:21:43.810Z,0
2017-07-23T00:22:44.121Z,0
2017-07-23T00:23:43.792Z,0
2017-07-23T00:24:44.098Z,0
2017-07-23T00:25:43.450Z,0
2017-07-23T00:26:43.831Z,0
2017-07-23T00:27:43.728Z,0
2017-07-23T00:28:43.728Z,0
2017-07-23T00:29:44.014Z,0
2017-07-23T00:30:43.699Z,0
2017-07-23T00:31:43.996Z,0
2017-07-23T00:32:43.732Z,0
2017-07-23T00:33:43.351Z,0
2017-07-23T00:34:43.961Z,0
2017-07-23T00:35:43.630Z,0
2017-07-23T00:36:43.918Z,0
2017-07-23T00:37:43.588Z,0
2017-07-23T00:38:43.590Z,0
2017-07-23T00:39:43.577Z,0
2017-07-23T00:40:43.561Z,0
2017-07-23T00:41:43.540Z,0
2017-07-23T00:42:43.564Z,0
2017-07-23T00:43:43.215Z,0
2017-07-23T00:44:43.509Z,0
2017-07-23T00:45:43.197Z,0
2017-07-23T00:46:43.788Z,0
2017-07-23T00:47:43.771Z,0
2017-07-23T00:48:43.176Z,0
2017-07-23T00:49:43.464Z,0
2017-07-23T00:50:43.480Z,0
2017-07-23T00:51:43.719Z,0
2017-07-23T00:52:43.725Z,0
2017-07-23T00:53:43.707Z,0
2017-07-23T00:54:43.502Z,0
2017-07-23T00:55:43.361Z,0
2017-07-23T00:56:43.659Z,0
2017-07-23T00:57:43.340Z,0
2017-07-23T00:58:43.344Z,0
2017-07-23T00:59:43.309Z,0
2017-07-23T01:00:43.312Z,0
2017-07-23T01:01:43.299Z,0
2017-07-23T01:02:43.274Z,0
2017-07-23T01:03:43.265Z,0
2017-07-23T01:04:43.260Z,0
2017-07-23T01:05:43.233Z,0
2017-07-23T01:06:43.284Z,0
2017-07-23T01:07:43.507Z,0
2017-07-23T01:08:43.212Z,0
2017-07-23T01:09:43.201Z,0
2017-07-23T01:10:43.579Z,0
2017-07-23T01:11:43.456Z,0
2017-07-23T01:12:43.201Z,0
2017-07-23T01:13:43.439Z,0
2017-07-23T01:14:42.801Z,0
2017-07-23T01:15:42.789Z,0
2017-07-23T01:16:42.790Z,0
2017-07-23T01:17:43.410Z,0
2017-07-23T01:18:42.765Z,0
2017-07-23T01:19:43.434Z,0
2017-07-23T01:20:43.364Z,0
2017-07-23T01:21:43.369Z,0
2017-07-23T01:22:42.711Z,0
2017-07-23T01:23:43.321Z,0
2017-07-23T01:24:43.340Z,0
2017-07-23T01:25:43.293Z,0
2017-07-23T01:26:43.258Z,0
2017-07-23T01:27:43.267Z,0
2017-07-23T01:28:43.230Z,0
2017-07-23T01:29:43.231Z,0
2017-07-23T01:30:43.197Z,0
2017-07-23T01:31:42.961Z,0
2017-07-23T01:32:43.180Z,0
2017-07-23T01:33:42.848Z,0
2017-07-23T01:34:42.840Z,0
2017-07-23T01:35:43.150Z,0
2017-07-23T01:36:43.121Z,0
2017-07-23T01:37:43.140Z,0
2017-07-23T01:38:43.121Z,0
2017-07-23T01:39:43.082Z,0
2017-07-23T01:40:42.690Z,0
2017-07-23T01:41:42.859Z,0
2017-07-23T01:42:42.719Z,0
2017-07-23T01:43:42.730Z,0
2017-07-23T01:44:43.008Z,0
2017-07-23T01:45:42.690Z,0
2017-07-23T01:46:42.991Z,0
2017-07-23T01:47:42.660Z,0
2017-07-23T01:48:42.973Z,0
2017-07-23T01:49:42.961Z,0
2017-07-23T01:50:42.938Z,0
2017-07-23T01:51:42.609Z,0
2017-07-23T01:52:42.907Z,0
2017-07-23T01:53:42.899Z,0
2017-07-23T01:54:42.569Z,0
2017-07-23T01:55:42.854Z,0
2017-07-23T01:56:42.851Z,0
2017-07-23T01:57:42.839Z,0
2017-07-23T01:58:42.823Z,0
2017-07-23T01:59:42.848Z,0
2017-07-23T02:00:42.809Z,0
2017-07-23T02:01:42.169Z,0
2017-07-23T02:02:42.780Z,0
2017-07-23T02:03:42.496Z,0
2017-07-23T02:04:42.427Z,0
2017-07-23T02:05:42.730Z,0
2017-07-23T02:06:42.709Z,0
2017-07-23T02:07:42.442Z,0
2017-07-23T02:08:42.687Z,0
2017-07-23T02:09:42.381Z,0
2017-07-23T02:10:42.657Z,0
2017-07-23T02:11:42.660Z,0
2017-07-23T02:12:42.420Z,0
2017-07-23T02:13:42.369Z,0
2017-07-23T02:14:42.299Z,0
2017-07-23T02:15:41.970Z,0
2017-07-23T02:16:42.260Z,0
2017-07-23T02:17:41.940Z,0
2017-07-23T02:18:42.249Z,0
2017-07-23T02:19:42.225Z,0
2017-07-23T02:20:41.910Z,0
2017-07-23T02:21:42.569Z,0
2017-07-23T02:22:42.252Z,0
2017-07-23T02:23:42.179Z,0
2017-07-23T02:24:42.180Z,0
2017-07-23T02:25:41.841Z,0
2017-07-23T02:26:42.435Z,0
2017-07-23T02:27:42.200Z,0
2017-07-23T02:28:42.430Z,0
2017-07-23T02:29:42.140Z,0
2017-07-23T02:30:42.492Z,0
2017-07-23T02:31:42.049Z,0
2017-07-23T02:32:41.751Z,0
2017-07-23T02:33:42.050Z,0
2017-07-23T02:34:41.711Z,0
2017-07-23T02:35:42.010Z,0
2017-07-23T02:36:42.000Z,0
2017-07-23T02:37:41.657Z,0
2017-07-23T02:38:42.280Z,0
2017-07-23T02:39:41.938Z,0
2017-07-23T02:40:41.951Z,0
2017-07-23T02:41:41.969Z,0
2017-07-23T02:42:41.913Z,0
2017-07-23T02:43:41.949Z,0
2017-07-23T02:44:42.242Z,0
2017-07-23T02:45:41.271Z,0
2017-07-23T02:46:41.542Z,0
2017-07-23T02:47:42.150Z,0
2017-07-23T02:48:42.180Z,0
2017-07-23T02:49:42.120Z,0
2017-07-23T02:50:42.101Z,0
2017-07-23T02:51:42.080Z,0
2017-07-23T02:52:41.767Z,0
2017-07-23T02:53:42.065Z,0
2017-07-23T02:54:41.740Z,0
2017-07-23T02:55:42.040Z,0
2017-07-23T02:56:42.009Z,0
2017-07-23T02:57:41.689Z,0
2017-07-23T02:58:41.699Z,0
2017-07-23T02:59:41.672Z,0
2017-07-23T03:00:42.009Z,0
2017-07-23T03:01:41.950Z,0
2017-07-23T03:02:41.639Z,0
2017-07-23T03:03:41.306Z,0
2017-07-23T03:04:41.297Z,0
2017-07-23T03:05:41.580Z,0
2017-07-23T03:06:41.260Z,0
2017-07-23T03:07:41.866Z,0
2017-07-23T03:08:41.539Z,0
2017-07-23T03:09:41.530Z,4
2017-07-23T03:10:41.838Z,4
2017-07-23T03:11:41.181Z,4
2017-07-23T03:12:41.795Z,4
2017-07-23T03:13:41.491Z,4
2017-07-23T03:14:41.158Z,0
2017-07-23T03:15:41.757Z,4
2017-07-23T03:16:41.727Z,0
2017-07-23T03:17:41.726Z,4
2017-07-23T03:18:41.096Z,4
2017-07-23T03:19:41.703Z,8
2017-07-23T03:20:41.373Z,4
2017-07-23T03:21:41.350Z,4
2017-07-23T03:22:41.335Z,8
2017-07-23T03:23:41.338Z,8
2017-07-23T03:24:41.339Z,8
2017-07-23T03:25:41.620Z,8
2017-07-23T03:26:40.998Z,8
2017-07-23T03:27:41.269Z,12
2017-07-23T03:28:41.258Z,12
2017-07-23T03:29:41.567Z,16
2017-07-23T03:30:41.237Z,20
2017-07-23T03:31:40.921Z,20
2017-07-23T03:32:40.970Z,20
2017-07-23T03:33:41.189Z,24
2017-07-23T03:34:41.270Z,32
2017-07-23T03:35:41.150Z,28
2017-07-23T03:36:40.941Z,20
2017-07-23T03:37:40.830Z,28
2017-07-23T03:38:41.118Z,28
2017-07-23T03:39:40.804Z,28
2017-07-23T03:40:40.785Z,32
2017-07-23T03:41:40.770Z,36
2017-07-23T03:42:40.807Z,44
2017-07-23T03:43:41.408Z,44
2017-07-23T03:44:41.057Z,56
2017-07-23T03:45:40.723Z,72
2017-07-23T03:46:41.071Z,76
2017-07-23T03:47:41.081Z,80
2017-07-23T03:48:40.680Z,84
2017-07-23T03:49:40.970Z,84
2017-07-23T03:50:40.998Z,84
2017-07-23T03:51:40.925Z,84
2017-07-23T03:52:41.230Z,80
2017-07-23T03:53:41.204Z,80
2017-07-23T03:54:40.920Z,76
2017-07-23T03:55:40.882Z,76
2017-07-23T03:56:40.578Z,80
2017-07-23T03:57:41.157Z,76
2017-07-23T03:58:40.908Z,72
2017-07-23T03:59:40.841Z,80
2017-07-23T04:00:41.140Z,88
2017-07-23T04:01:40.820Z,92
2017-07-23T04:02:40.821Z,88
2017-07-23T04:03:41.071Z,76
2017-07-23T04:04:40.770Z,64
2017-07-23T04:05:40.807Z,76
2017-07-23T04:06:41.028Z,108
2017-07-23T04:07:41.091Z,140
2017-07-23T04:08:41.057Z,156
2017-07-23T04:09:41.087Z,164
2017-07-23T04:10:40.680Z,176
2017-07-23T04:11:40.403Z,192
2017-07-23T04:12:40.985Z,220
2017-07-23T04:13:40.650Z,244
2017-07-23T04:14:40.970Z,264
2017-07-23T04:15:40.919Z,276
2017-07-23T04:16:39.947Z,280
2017-07-23T04:17:40.259Z,280
2017-07-23T04:18:40.859Z,292
2017-07-23T04:19:40.845Z,292
2017-07-23T04:20:40.843Z,312
2017-07-23T04:21:40.197Z,344
2017-07-23T04:22:40.810Z,332
2017-07-23T04:23:40.792Z,308
2017-07-23T04:24:40.760Z,272
2017-07-23T04:25:40.759Z,240
2017-07-23T04:26:40.438Z,216
2017-07-23T04:27:40.409Z,200
2017-07-23T04:28:40.718Z,196
2017-07-23T04:29:40.768Z,204
2017-07-23T04:30:40.362Z,220
2017-07-23T04:31:40.041Z,244
2017-07-23T04:32:40.659Z,268
2017-07-23T04:33:40.335Z,284
2017-07-23T04:34:40.336Z,292
2017-07-23T04:35:39.988Z,288
2017-07-23T04:36:40.290Z,276
2017-07-23T04:37:40.629Z,264
2017-07-23T04:38:40.649Z,244
2017-07-23T04:39:40.240Z,232
2017-07-23T04:40:40.209Z,216
2017-07-23T04:41:39.920Z,200
2017-07-23T04:42:40.198Z,184
2017-07-23T04:43:40.496Z,168
2017-07-23T04:44:40.169Z,152
2017-07-23T04:45:40.457Z,136
2017-07-23T04:46:40.129Z,120
2017-07-23T04:47:40.129Z,116
2017-07-23T04:48:40.410Z,120
2017-07-23T04:49:40.402Z,132
2017-07-23T04:50:40.131Z,156
2017-07-23T04:51:40.401Z,192
2017-07-23T04:52:40.358Z,232
2017-07-23T04:53:40.348Z,272
2017-07-23T04:54:40.339Z,308
2017-07-23T04:55:39.700Z,348
2017-07-23T04:56:39.988Z,372
2017-07-23T04:57:39.993Z,388
2017-07-23T04:58:40.280Z,404
2017-07-23T04:59:39.960Z,424
2017-07-23T05:00:39.940Z,444
2017-07-23T05:01:39.621Z,472
2017-07-23T05:02:39.589Z,484
2017-07-23T05:03:40.201Z,476
2017-07-23T05:04:39.877Z,440
2017-07-23T05:05:39.867Z,364
2017-07-23T05:06:39.850Z,380
2017-07-23T05:07:39.887Z,316
2017-07-23T05:08:39.209Z,308
2017-07-23T05:09:39.479Z,348
2017-07-23T05:10:39.483Z,408
2017-07-23T05:11:39.470Z,456
2017-07-23T05:12:39.767Z,476
2017-07-23T05:13:39.748Z,500
2017-07-23T05:14:39.729Z,544
2017-07-23T05:15:39.402Z,564
2017-07-23T05:16:40.032Z,656
2017-07-23T05:17:39.988Z,728
2017-07-23T05:18:39.694Z,788
2017-07-23T05:19:39.349Z,892
2017-07-23T05:20:39.946Z,944
2017-07-23T05:21:39.647Z,1040
2017-07-23T05:22:39.611Z,1084
2017-07-23T05:23:39.609Z,1104
2017-07-23T05:24:39.887Z,1240
2017-07-23T05:25:39.872Z,1276
2017-07-23T05:26:39.862Z,1420
2017-07-23T05:27:39.546Z,1508
2017-07-23T05:28:39.547Z,1764
2017-07-23T05:29:39.810Z,2000
2017-07-23T05:30:39.490Z,2348
2017-07-23T05:31:39.842Z,2704
2017-07-23T05:32:39.178Z,2860
2017-07-23T05:33:38.971Z,3192
2017-07-23T05:34:39.441Z,3172
2017-07-23T05:35:39.428Z,2944
2017-07-23T05:36:39.729Z,2944
2017-07-23T05:37:39.076Z,3136
2017-07-23T05:38:39.689Z,3112
2017-07-23T05:39:39.090Z,3216
2017-07-23T05:40:39.656Z,3376
2017-07-23T05:41:39.347Z,3312
2017-07-23T05:42:39.332Z,3476
2017-07-23T05:43:39.719Z,3592
2017-07-23T05:44:39.280Z,3684
2017-07-23T05:45:39.300Z,3692
2017-07-23T05:46:39.561Z,3532
2017-07-23T05:47:39.268Z,3396
2017-07-23T05:48:39.227Z,3132
2017-07-23T05:49:39.642Z,3200
2017-07-23T05:50:38.904Z,3384
2017-07-23T05:51:39.199Z,3004
2017-07-23T05:52:39.578Z,3204
2017-07-23T05:53:38.599Z,3200
2017-07-23T05:54:39.467Z,3320
2017-07-23T05:55:39.188Z,3332
2017-07-23T05:56:39.448Z,3300
2017-07-23T05:57:39.428Z,3128
2017-07-23T05:58:39.118Z,2936
2017-07-23T05:59:39.388Z,3172
2017-07-23T06:00:38.748Z,3328
2017-07-23T06:01:38.789Z,3432
2017-07-23T06:02:38.721Z,3316
2017-07-23T06:03:39.020Z,3668
2017-07-23T06:04:39.321Z,3716
2017-07-23T06:05:39.018Z,3736
2017-07-23T06:06:38.689Z,3836
2017-07-23T06:07:38.645Z,4020
2017-07-23T06:08:38.655Z,4408
2017-07-23T06:09:38.938Z,4708
2017-07-23T06:10:38.909Z,4624
2017-07-23T06:11:39.209Z,4916
2017-07-23T06:12:38.639Z,4892
2017-07-23T06:13:38.569Z,5036
2017-07-23T06:14:38.861Z,5364
2017-07-23T06:15:38.837Z,5104
2017-07-23T06:16:38.834Z,4884
2017-07-23T06:17:39.118Z,5048
2017-07-23T06:18:38.797Z,5240
2017-07-23T06:19:38.488Z,4636
2017-07-23T06:20:39.078Z,4412
2017-07-23T06:21:39.059Z,4508
2017-07-23T06:22:39.080Z,4516
2017-07-23T06:23:39.030Z,4480
2017-07-23T06:24:39.039Z,4776
2017-07-23T06:25:38.698Z,4532
2017-07-23T06:26:38.416Z,4552
2017-07-23T06:27:38.368Z,4924
2017-07-23T06:28:38.669Z,5644
2017-07-23T06:29:38.966Z,5920
2017-07-23T06:30:38.637Z,6076
2017-07-23T06:31:38.618Z,5528
2017-07-23T06:32:38.605Z,4900
2017-07-23T06:33:38.339Z,4564
2017-07-23T06:34:38.568Z,4180
2017-07-23T06:35:38.669Z,3988
2017-07-23T06:36:38.842Z,3896
2017-07-23T06:37:38.658Z,4048
2017-07-23T06:38:38.518Z,3968
2017-07-23T06:39:38.509Z,3876
2017-07-23T06:40:38.499Z,3864
2017-07-23T06:41:38.586Z,3896
2017-07-23T06:42:38.457Z,3884
2017-07-23T06:43:38.172Z,3824
2017-07-23T06:44:38.439Z,3808
2017-07-23T06:45:38.407Z,3884
2017-07-23T06:46:38.427Z,3944
2017-07-23T06:47:38.398Z,4052
2017-07-23T06:48:38.374Z,4516
2017-07-23T06:49:38.379Z,4212
2017-07-23T06:50:38.448Z,4124
2017-07-23T06:51:38.387Z,3984
2017-07-23T06:52:38.609Z,3968
2017-07-23T06:53:38.610Z,4192
2017-07-23T06:54:38.608Z,4208
2017-07-23T06:55:38.579Z,4220
2017-07-23T06:56:38.573Z,4168
2017-07-23T06:57:38.538Z,4320
2017-07-23T06:58:38.227Z,4188
2017-07-23T06:59:38.536Z,4072
2017-07-23T07:00:38.509Z,4120
2017-07-23T07:01:38.209Z,4080
2017-07-23T07:02:38.599Z,4048
2017-07-23T07:03:38.458Z,4072
2017-07-23T07:04:38.465Z,4128
2017-07-23T07:05:38.448Z,4248
2017-07-23T07:06:38.449Z,4292
2017-07-23T07:07:38.402Z,4540
2017-07-23T07:08:38.395Z,5084
2017-07-23T07:09:38.371Z,4936
2017-07-23T07:10:38.379Z,4892
2017-07-23T07:11:38.339Z,4972
2017-07-23T07:12:38.342Z,5216
2017-07-23T07:13:38.018Z,5512
2017-07-23T07:14:38.014Z,5748
2017-07-23T07:15:38.309Z,6244
2017-07-23T07:16:37.974Z,7040
2017-07-23T07:17:37.967Z,5696
2017-07-23T07:18:38.250Z,6204
2017-07-23T07:19:37.925Z,6264
2017-07-23T07:20:37.937Z,6040
2017-07-23T07:21:37.898Z,5988
2017-07-23T07:22:38.197Z,6048
2017-07-23T07:23:38.250Z,6292
2017-07-23T07:24:37.552Z,6300
2017-07-23T07:25:37.850Z,6456
2017-07-23T07:26:37.859Z,6912
2017-07-23T07:27:38.219Z,7480
2017-07-23T07:28:37.826Z,8404
2017-07-23T07:29:38.089Z,9816
2017-07-23T07:30:38.179Z,9652
2017-07-23T07:31:38.088Z,10260
2017-07-23T07:32:37.227Z,10780
2017-07-23T07:33:38.098Z,10884
2017-07-23T07:34:38.057Z,10656
2017-07-23T07:35:38.008Z,10724
2017-07-23T07:36:38.020Z,10920
2017-07-23T07:37:37.997Z,10780
2017-07-23T07:38:37.995Z,10584
2017-07-23T07:39:37.967Z,10968
2017-07-23T07:40:37.960Z,9332
2017-07-23T07:41:37.924Z,8196
2017-07-23T07:42:37.617Z,7856
2017-07-23T07:43:37.908Z,8084
2017-07-23T07:44:37.302Z,9112
2017-07-23T07:45:37.918Z,10036
2017-07-23T07:46:37.888Z,9064
2017-07-23T07:47:37.878Z,10576
2017-07-23T07:48:37.297Z,10556
2017-07-23T07:49:37.829Z,9340
2017-07-23T07:50:37.538Z,10356
2017-07-23T07:51:37.828Z,11304
2017-07-23T07:52:37.178Z,12164
2017-07-23T07:53:37.467Z,11732
2017-07-23T07:54:37.788Z,10492
2017-07-23T07:55:37.142Z,10280
2017-07-23T07:56:37.747Z,10388
2017-07-23T07:57:37.417Z,10212
2017-07-23T07:58:37.420Z,9184
2017-07-23T07:59:37.715Z,9208
2017-07-23T08:00:37.714Z,7748
2017-07-23T08:01:37.681Z,7404
2017-07-23T08:02:37.678Z,8264
2017-07-23T08:03:37.449Z,7992
2017-07-23T08:04:37.655Z,8556
2017-07-23T08:05:37.628Z,9844
2017-07-23T08:06:37.304Z,10752
2017-07-23T08:07:37.311Z,10652
2017-07-23T08:08:36.977Z,9908
2017-07-23T08:09:37.295Z,9740
2017-07-23T08:10:37.608Z,10424
2017-07-23T08:11:37.278Z,10796
2017-07-23T08:12:37.239Z,11396
2017-07-23T08:13:37.228Z,10900
2017-07-23T08:14:37.508Z,11396
2017-07-23T08:15:37.520Z,11416
2017-07-23T08:16:37.496Z,11064
2017-07-23T08:17:37.177Z,10768
2017-07-23T08:18:37.481Z,10864
2017-07-23T08:19:37.158Z,10924
2017-07-23T08:20:37.450Z,10984
2017-07-23T08:21:37.447Z,11084
2017-07-23T08:22:37.427Z,11440
2017-07-23T08:23:37.137Z,11296
2017-07-23T08:24:37.530Z,11164
2017-07-23T08:25:37.089Z,8968
2017-07-23T08:26:37.080Z,7552
2017-07-23T08:27:37.398Z,10240
2017-07-23T08:28:37.369Z,10136
2017-07-23T08:29:37.037Z,9716
2017-07-23T08:30:37.409Z,9044
2017-07-23T08:31:37.019Z,9556
2017-07-23T08:32:36.997Z,14308
2017-07-23T08:33:37.298Z,26208
2017-07-23T08:34:36.739Z,42240
2017-07-23T08:35:37.361Z,61664
2017-07-23T08:36:36.978Z,76640
2017-07-23T08:37:37.281Z,91776
2017-07-23T08:38:37.260Z,96672
2017-07-23T08:39:37.240Z,86752
2017-07-23T08:40:37.307Z,88832
2017-07-23T08:41:36.898Z,95040
2017-07-23T08:42:37.180Z,92896
2017-07-23T08:43:37.183Z,93888
2017-07-23T08:44:36.869Z,90816
2017-07-23T08:45:36.831Z,88288
2017-07-23T08:46:36.547Z,95328
2017-07-23T08:47:37.137Z,92512
2017-07-23T08:48:36.508Z,89792
2017-07-23T08:49:36.811Z,92864
2017-07-23T08:50:36.814Z,95136
2017-07-23T08:51:36.799Z,90496
2017-07-23T08:52:37.102Z,90752
2017-07-23T08:53:37.123Z,47808
2017-07-23T08:54:37.080Z,19808
2017-07-23T08:55:37.067Z,94336
2017-07-23T08:56:37.064Z,98432
2017-07-23T08:57:37.084Z,15584
2017-07-23T08:58:37.075Z,11992
2017-07-23T08:59:36.738Z,8116
2017-07-23T09:00:37.053Z,7916
2017-07-23T09:01:36.709Z,7688
2017-07-23T09:02:36.998Z,8776
2017-07-23T09:03:37.001Z,8144
2017-07-23T09:04:36.992Z,7408
2017-07-23T09:05:36.671Z,30688
2017-07-23T09:06:36.987Z,83904
2017-07-23T09:07:36.738Z,12576
2017-07-23T09:08:36.962Z,12252
2017-07-23T09:09:36.931Z,84096
2017-07-23T09:10:36.729Z,18496
2017-07-23T09:11:36.921Z,70912
2017-07-23T09:12:36.701Z,40256
2017-07-23T09:13:36.608Z,87840
2017-07-23T09:14:36.911Z,13868
2017-07-23T09:15:36.569Z,19808
2017-07-23T09:16:36.590Z,8504
2017-07-23T09:17:36.659Z,9608
2017-07-23T09:18:36.559Z,10068
2017-07-23T09:19:36.648Z,8796
2017-07-23T09:20:36.544Z,7128
2017-07-23T09:21:36.942Z,5784
2017-07-23T09:22:36.568Z,4656
2017-07-23T09:23:36.823Z,4476
2017-07-23T09:24:36.505Z,4280
2017-07-23T09:25:36.493Z,5860
2017-07-23T09:26:36.498Z,72480
2017-07-23T09:27:36.791Z,76992
2017-07-23T09:28:36.495Z,8056
2017-07-23T09:29:36.458Z,6684
2017-07-23T09:30:36.536Z,6244
2017-07-23T09:31:36.766Z,7756
2017-07-23T09:32:36.740Z,10168
2017-07-23T09:33:36.111Z,7484
2017-07-23T09:34:36.714Z,6176
2017-07-23T09:35:36.709Z,4548
2017-07-23T09:36:36.378Z,2884
2017-07-23T09:37:36.710Z,2332
2017-07-23T09:38:36.679Z,2168
2017-07-23T09:39:36.660Z,2324
2017-07-23T09:40:36.359Z,2556
2017-07-23T09:41:36.646Z,2772
2017-07-23T09:42:36.032Z,2784
2017-07-23T09:43:36.645Z,2640
2017-07-23T09:44:36.299Z,2740
2017-07-23T09:45:36.289Z,3116
2017-07-23T09:46:36.590Z,3320
2017-07-23T09:47:36.589Z,3440
2017-07-23T09:48:36.243Z,3728
2017-07-23T09:49:36.552Z,4104
2017-07-23T09:50:36.542Z,4812
2017-07-23T09:51:36.230Z,5576
2017-07-23T09:52:36.555Z,6332
2017-07-23T09:53:36.483Z,6952
2017-07-23T09:54:36.197Z,6764
2017-07-23T09:55:36.456Z,5952
2017-07-23T09:56:36.150Z,5188
2017-07-23T09:57:36.147Z,4576
2017-07-23T09:58:36.149Z,3924
2017-07-23T09:59:36.437Z,3276
2017-07-23T10:00:36.429Z,2900
2017-07-23T10:01:36.114Z,2808
2017-07-23T10:02:36.090Z,2848
2017-07-23T10:03:36.121Z,3044
2017-07-23T10:04:36.078Z,3632
2017-07-23T10:05:36.044Z,5208
2017-07-23T10:06:36.057Z,8052
2017-07-23T10:07:36.341Z,63808
2017-07-23T10:08:36.320Z,61472
2017-07-23T10:09:36.311Z,59776
2017-07-23T10:10:35.984Z,56672
2017-07-23T10:11:36.279Z,58496
2017-07-23T10:12:36.281Z,57760
2017-07-23T10:13:35.980Z,7948
2017-07-23T10:14:36.259Z,7480
2017-07-23T10:15:36.261Z,6136
2017-07-23T10:16:36.231Z,5176
2017-07-23T10:17:36.262Z,4436
2017-07-23T10:18:36.221Z,3892
2017-07-23T10:19:36.232Z,3696
2017-07-23T10:20:36.220Z,3844
2017-07-23T10:21:36.242Z,4136
2017-07-23T10:22:36.189Z,4160
2017-07-23T10:23:36.189Z,3700
2017-07-23T10:24:36.149Z,3696
2017-07-23T10:25:36.146Z,4068
2017-07-23T10:26:36.181Z,3740
2017-07-23T10:27:36.123Z,3676
2017-07-23T10:28:36.212Z,3880
2017-07-23T10:29:36.125Z,3780
2017-07-23T10:30:36.077Z,3160
2017-07-23T10:31:36.129Z,2356
2017-07-23T10:32:35.770Z,1684
2017-07-23T10:33:35.810Z,1360
2017-07-23T10:34:36.065Z,1420
2017-07-23T10:35:36.050Z,1660
2017-07-23T10:36:36.026Z,1988
2017-07-23T10:37:36.060Z,2336
2017-07-23T10:38:36.023Z,2612
2017-07-23T10:39:35.996Z,3040
2017-07-23T10:40:35.961Z,3340
2017-07-23T10:41:35.329Z,3592
2017-07-23T10:42:35.942Z,3848
2017-07-23T10:43:35.935Z,4300
2017-07-23T10:44:35.945Z,4624
2017-07-23T10:45:35.898Z,4868
2017-07-23T10:46:35.873Z,5320
2017-07-23T10:47:35.867Z,5464
2017-07-23T10:48:35.567Z,5536
2017-07-23T10:49:35.232Z,5436
2017-07-23T10:50:35.849Z,5172
2017-07-23T10:51:35.552Z,4304
2017-07-23T10:52:35.833Z,3872
2017-07-23T10:53:35.500Z,3668
2017-07-23T10:54:35.800Z,3216
2017-07-23T10:55:35.791Z,2652
2017-07-23T10:56:35.769Z,2480
2017-07-23T10:57:35.760Z,2972
2017-07-23T10:58:35.730Z,3544
2017-07-23T10:59:35.761Z,4120
2017-07-23T11:00:35.740Z,4324
2017-07-23T11:01:35.092Z,4876
2017-07-23T11:02:35.698Z,5596
2017-07-23T11:03:35.688Z,6340
2017-07-23T11:04:35.663Z,10764
2017-07-23T11:05:35.673Z,11800
2017-07-23T11:06:35.355Z,11384
2017-07-23T11:07:35.625Z,10756
2017-07-23T11:08:35.307Z,10228
2017-07-23T11:09:35.622Z,10300
2017-07-23T11:10:35.595Z,10564
2017-07-23T11:11:35.289Z,11396
2017-07-23T11:12:35.565Z,11252
2017-07-23T11:13:35.550Z,6892
2017-07-23T11:14:35.549Z,6160
2017-07-23T11:15:35.662Z,5840
2017-07-23T11:16:35.543Z,6388
2017-07-23T11:17:35.617Z,6936
2017-07-23T11:18:35.500Z,6316
2017-07-23T11:19:34.888Z,5948
2017-07-23T11:20:35.185Z,6008
2017-07-23T11:21:35.469Z,5876
2017-07-23T11:22:35.157Z,5880
2017-07-23T11:23:35.162Z,6328
2017-07-23T11:24:35.141Z,6828
2017-07-23T11:25:35.521Z,6928
2017-07-23T11:26:35.100Z,6992
2017-07-23T11:27:35.108Z,7152
2017-07-23T11:28:35.089Z,7404
2017-07-23T11:29:35.416Z,7516
2017-07-23T11:30:35.048Z,7488
2017-07-23T11:31:35.377Z,7420
2017-07-23T11:32:35.043Z,7368
2017-07-23T11:33:35.468Z,7628
2017-07-23T11:34:35.352Z,8464
2017-07-23T11:35:35.010Z,12660
2017-07-23T11:36:34.972Z,11072
2017-07-23T11:37:35.340Z,11908
2017-07-23T11:38:35.300Z,9624
2017-07-23T11:39:35.310Z,9136
2017-07-23T11:40:35.250Z,10904
2017-07-23T11:41:34.918Z,10196
2017-07-23T11:42:35.271Z,9980
2017-07-23T11:43:35.263Z,8232
2017-07-23T11:44:35.189Z,8844
2017-07-23T11:45:35.207Z,9060
2017-07-23T11:46:34.898Z,7632
2017-07-23T11:47:35.151Z,8324
2017-07-23T11:48:35.000Z,8164
2017-07-23T11:49:35.139Z,8744
2017-07-23T11:50:35.154Z,8852
2017-07-23T11:51:34.821Z,9416
2017-07-23T11:52:35.099Z,7608
2017-07-23T11:53:35.087Z,9956
2017-07-23T11:54:34.791Z,9076
2017-07-23T11:55:35.071Z,10372
2017-07-23T11:56:35.052Z,8536
2017-07-23T11:57:35.066Z,8172
2017-07-23T11:58:35.047Z,8064
2017-07-23T11:59:35.022Z,7980
2017-07-23T12:00:35.022Z,8212
2017-07-23T12:01:35.008Z,8932
2017-07-23T12:02:35.012Z,10256
2017-07-23T12:03:34.978Z,9584
2017-07-23T12:04:34.967Z,8940
2017-07-23T12:05:34.977Z,8504
2017-07-23T12:06:34.949Z,8240
2017-07-23T12:07:34.952Z,8352
2017-07-23T12:08:34.929Z,8660
2017-07-23T12:09:34.610Z,8976
2017-07-23T12:10:34.909Z,9516
2017-07-23T12:11:34.578Z,8180
2017-07-23T12:12:34.900Z,8504
2017-07-23T12:13:34.580Z,7072
2017-07-23T12:14:34.558Z,10336
2017-07-23T12:15:34.841Z,8412
2017-07-23T12:16:34.863Z,10772
2017-07-23T12:17:34.960Z,11260
2017-07-23T12:18:34.805Z,9924
2017-07-23T12:19:34.210Z,9632
2017-07-23T12:20:34.174Z,10632
2017-07-23T12:21:34.769Z,10460
2017-07-23T12:22:34.785Z,11400
2017-07-23T12:23:34.802Z,7216
2017-07-23T12:24:34.765Z,10836
2017-07-23T12:25:34.458Z,10220
2017-07-23T12:26:34.728Z,9684
2017-07-23T12:27:34.805Z,9524
2017-07-23T12:28:34.721Z,5736
2017-07-23T12:29:34.727Z,6244
2017-07-23T12:30:34.822Z,9892
2017-07-23T12:31:34.060Z,5948
2017-07-23T12:32:34.700Z,6560
2017-07-23T12:33:34.355Z,9080
2017-07-23T12:34:34.682Z,10228
2017-07-23T12:35:34.333Z,9624
2017-07-23T12:36:34.015Z,10680
2017-07-23T12:37:34.608Z,9824
2017-07-23T12:38:34.298Z,9652
2017-07-23T12:39:34.589Z,8720
2017-07-23T12:40:34.600Z,7704
2017-07-23T12:41:34.279Z,8400
2017-07-23T12:42:34.583Z,10572
2017-07-23T12:43:34.241Z,10704
2017-07-23T12:44:34.232Z,6860
2017-07-23T12:45:34.532Z,10784
2017-07-23T12:46:33.917Z,9856
2017-07-23T12:47:34.521Z,9256
2017-07-23T12:48:34.199Z,8964
2017-07-23T12:49:34.500Z,9260
2017-07-23T12:50:34.531Z,9248
2017-07-23T12:51:34.171Z,8884
2017-07-23T12:52:34.453Z,8812
2017-07-23T12:53:34.160Z,8860
2017-07-23T12:54:34.431Z,8984
2017-07-23T12:55:34.118Z,8736
2017-07-23T12:56:34.110Z,9132
2017-07-23T12:57:34.440Z,9236
2017-07-23T12:58:34.415Z,9400
2017-07-23T12:59:34.078Z,9628
2017-07-23T13:00:34.101Z,9628
2017-07-23T13:01:34.079Z,9404
2017-07-23T13:02:34.048Z,9984
2017-07-23T13:03:34.359Z,10340
2017-07-23T13:04:34.027Z,10184
2017-07-23T13:05:34.351Z,9996
2017-07-23T13:06:34.330Z,9348
2017-07-23T13:07:34.008Z,6692
2017-07-23T13:08:34.000Z,8772
2017-07-23T13:09:33.971Z,8068
2017-07-23T13:10:34.286Z,8132
2017-07-23T13:11:33.998Z,6780
2017-07-23T13:12:33.958Z,5572
2017-07-23T13:13:33.641Z,5180
2017-07-23T13:14:33.929Z,5180
2017-07-23T13:15:33.928Z,5648
2017-07-23T13:16:33.917Z,6280
2017-07-23T13:17:33.614Z,5836
2017-07-23T13:18:33.887Z,5520
2017-07-23T13:19:33.858Z,6092
2017-07-23T13:20:34.177Z,6256
2017-07-23T13:21:33.870Z,6712
2017-07-23T13:22:33.872Z,9420
2017-07-23T13:23:34.150Z,5972
2017-07-23T13:24:34.136Z,6268
2017-07-23T13:25:34.128Z,7264
2017-07-23T13:26:33.920Z,7512
2017-07-23T13:27:34.089Z,9384
2017-07-23T13:28:33.881Z,6816
2017-07-23T13:29:33.562Z,9544
2017-07-23T13:30:34.106Z,9940
2017-07-23T13:31:33.754Z,10436
2017-07-23T13:32:33.764Z,9856
2017-07-23T13:33:33.752Z,9896
2017-07-23T13:34:33.763Z,8936
2017-07-23T13:35:33.757Z,9300
2017-07-23T13:36:34.021Z,8312
2017-07-23T13:37:34.028Z,6940
2017-07-23T13:38:33.988Z,7236
2017-07-23T13:39:33.979Z,7248
2017-07-23T13:40:33.369Z,7136